Bookmark and Share
Track history (hours):
 

Nibulon 1

Last reported at 2014-Apr-11 03:25 UTC. Time now 2014-Apr-20 03:22 UTC.
Position N 46°33' E 032°19'.
Warning: this ship's position is 8 days out of date.

Length 38 m; draft 2.6 m.

Type: Tug. MMSI: 272641000.

NotesDate/timePositionNaut miles runAvg speedWind from/ knotsBaromVisibWave heightAir tempDewpointWater temp
2014-Apr-11 03:25N 46°33' E 032°19'3 3.1
2014-Apr-11 02:20N 46°33' E 032°14'0 0.0
2014-Apr-11 01:29N 46°33' E 032°14'2 1.6
2014-Apr-11 00:32N 46°33' E 032°12'5 5.1
2014-Apr-10 23:33N 46°32' E 032°05'5 5.4
2014-Apr-10 22:33N 46°36' E 031°60'5 5.4
2014-Apr-10 21:33N 46°41' E 031°56'5 4.9
2014-Apr-10 20:33N 46°45' E 031°54'5 5.3
2014-Apr-10 19:33N 46°50' E 031°56'6 5.9
2014-Apr-10 18:33N 46°55' E 032°01'2 2.3
2014-Apr-10 17:33N 46°57' E 031°59'0 0.0
2014-Apr-10 16:33N 46°57' E 031°59'0 0.2
2014-Apr-10 15:33N 46°57' E 031°59'0 0.0
2014-Apr-10 14:33N 46°57' E 031°59'1 0.7
2014-Apr-10 13:33N 46°56' E 031°58'1 1.1
2014-Apr-10 12:33N 46°57' E 031°59'0 0.0
2014-Apr-10 11:33N 46°57' E 031°59'0 0.0
2014-Apr-10 10:30N 46°57' E 031°59'0 0.0
2014-Apr-10 09:30N 46°57' E 031°59'0 0.0
2014-Apr-10 08:33N 46°57' E 031°59'0 0.0
2014-Apr-10 07:33N 46°57' E 031°59'0 0.0
2014-Apr-10 06:33N 46°57' E 031°59'0 0.0
2014-Apr-10 05:33N 46°57' E 031°59'0 0.0
2014-Apr-10 04:33N 46°57' E 031°59'0 0.0
2014-Apr-10 03:33N 46°57' E 031°59'0 0.0
2014-Apr-10 02:33N 46°57' E 031°59'0 0.0
2014-Apr-10 01:33N 46°57' E 031°59'0 0.0
2014-Apr-10 00:33N 46°57' E 031°59'0 0.0
2014-Apr-09 23:33N 46°57' E 031°59'0 0.0
2014-Apr-09 22:33N 46°57' E 031°59'0 0.0
2014-Apr-09 21:33N 46°57' E 031°59'0 0.0
2014-Apr-09 20:33N 46°57' E 031°59'0 0.0
2014-Apr-09 19:30N 46°57' E 031°59'0 0.0
2014-Apr-09 18:33N 46°57' E 031°59'0 0.0
2014-Apr-09 17:33N 46°57' E 031°59'0 0.0
2014-Apr-09 16:33N 46°57' E 031°59'0 0.0
2014-Apr-09 15:33N 46°57' E 031°59'0 0.0
2014-Apr-09 14:33N 46°57' E 031°59'0 0.0
2014-Apr-09 13:30N 46°57' E 031°59'0 0.0
2014-Apr-09 12:33N 46°57' E 031°59'0 0.0
2014-Apr-09 11:33N 46°57' E 031°59'0 0.0
2014-Apr-09 10:33N 46°57' E 031°59'0 0.0
2014-Apr-09 09:33N 46°57' E 031°59'0 0.0
2014-Apr-09 08:33N 46°57' E 031°59'0 0.0
2014-Apr-09 07:33N 46°57' E 031°59'0 0.0
2014-Apr-09 06:33N 46°57' E 031°59'0 0.0
2014-Apr-09 05:33N 46°57' E 031°59'0 0.0
2014-Apr-09 04:33N 46°57' E 031°59'0 0.0
2014-Apr-09 03:33N 46°57' E 031°59'0 0.0
2014-Apr-09 02:33N 46°57' E 031°59'0 0.0
2014-Apr-09 01:33N 46°57' E 031°59'0 0.0
2014-Apr-09 00:33N 46°57' E 031°59'0 0.0
2014-Apr-08 23:33N 46°57' E 031°59'0 0.0
2014-Apr-08 22:33N 46°57' E 031°59'0 0.0
2014-Apr-08 21:33N 46°57' E 031°59'0 0.0
2014-Apr-08 20:33N 46°57' E 031°59'0 0.0
2014-Apr-08 19:33N 46°57' E 031°59'0 0.0
2014-Apr-08 18:30N 46°57' E 031°59'0 0.0
2014-Apr-08 17:33N 46°57' E 031°59'0 0.0
2014-Apr-08 16:33N 46°57' E 031°59'0 0.0
2014-Apr-08 15:33N 46°57' E 031°59'0 0.0
2014-Apr-08 14:33N 46°57' E 031°59'0 0.0
2014-Apr-08 13:33N 46°57' E 031°59'0 0.0
2014-Apr-08 12:33N 46°57' E 031°59'0 0.0
2014-Apr-08 11:33N 46°57' E 031°59'0 0.0
2014-Apr-08 10:33N 46°57' E 031°59'0 0.0
2014-Apr-08 09:33N 46°57' E 031°59'0 0.0
2014-Apr-08 08:33N 46°57' E 031°59'0 0.0
2014-Apr-08 07:33N 46°57' E 031°59'0 0.0
2014-Apr-08 06:33N 46°57' E 031°59'0 0.0
2014-Apr-08 05:33N 46°57' E 031°59'0 0.0
2014-Apr-08 04:33N 46°57' E 031°59'0 0.0
2014-Apr-08 03:33N 46°57' E 031°59'0 0.0
2014-Apr-08 02:33N 46°57' E 031°59'0 0.0
2014-Apr-08 01:33N 46°57' E 031°59'0 0.0
2014-Apr-08 00:33N 46°57' E 031°59'0 0.0
2014-Apr-07 23:33N 46°57' E 031°59'0 0.0
2014-Apr-07 22:33N 46°57' E 031°59'0 0.0
2014-Apr-07 21:33N 46°57' E 031°59'0 0.0
2014-Apr-07 20:33N 46°57' E 031°59'0 0.0
2014-Apr-07 19:33N 46°57' E 031°59'0 0.0
2014-Apr-07 17:30N 46°57' E 031°59'0 0.0
2014-Apr-07 16:33N 46°57' E 031°59'0 0.0
2014-Apr-07 15:33N 46°57' E 031°59'0 0.0
2014-Apr-07 14:30N 46°57' E 031°59'0 0.0
2014-Apr-07 13:33N 46°57' E 031°59'0 0.0
2014-Apr-07 12:33N 46°57' E 031°59'0 0.0
2014-Apr-07 11:33N 46°57' E 031°59'0 0.0
2014-Apr-07 10:33N 46°57' E 031°59'0 0.0
2014-Apr-07 09:33N 46°57' E 031°59'0 0.0
2014-Apr-07 08:33N 46°57' E 031°59'0 0.0
2014-Apr-07 07:33N 46°57' E 031°59'0 0.0
2014-Apr-07 06:30N 46°57' E 031°59'0 0.0
2014-Apr-07 05:33N 46°57' E 031°59'0 0.0
2014-Apr-07 04:33N 46°57' E 031°59'0 0.0
2014-Apr-07 03:33N 46°57' E 031°59'0 0.0
2014-Apr-07 02:33N 46°57' E 031°59'0 0.0
2014-Apr-07 01:33N 46°57' E 031°59'0 0.0
2014-Apr-07 00:33N 46°57' E 031°59'0 0.0
2014-Apr-06 23:33N 46°57' E 031°59'0 0.0
2014-Apr-06 22:33N 46°57' E 031°59'0 0.0
2014-Apr-06 21:33N 46°57' E 031°59'0 0.0
2014-Apr-06 20:33N 46°57' E 031°59'0 0.0
2014-Apr-06 19:33N 46°57' E 031°59'0 0.0
2014-Apr-06 18:33N 46°57' E 031°59'0 0.0
2014-Apr-06 17:33N 46°57' E 031°59'0 0.0
2014-Apr-06 16:33N 46°57' E 031°59'0 0.0
2014-Apr-06 15:33N 46°57' E 031°59'0 0.0
2014-Apr-06 14:30N 46°57' E 031°59'0 0.0
2014-Apr-06 13:33N 46°57' E 031°59'0 0.0
2014-Apr-06 12:33N 46°57' E 031°59'0 0.0
2014-Apr-06 11:33N 46°57' E 031°59'0 0.0
2014-Apr-06 10:30N 46°57' E 031°59'0 0.0
2014-Apr-06 09:33N 46°57' E 031°59'0 0.0
2014-Apr-06 08:33N 46°57' E 031°59'0 0.0
2014-Apr-06 07:33N 46°57' E 031°59'0 0.0
2014-Apr-06 06:33N 46°57' E 031°59'0 0.0
2014-Apr-06 05:30N 46°57' E 031°59'0 0.0
2014-Apr-06 04:33N 46°57' E 031°59'0 0.0
2014-Apr-06 03:33N 46°57' E 031°59'0 0.0
2014-Apr-06 02:33N 46°57' E 031°59'0 0.0
2014-Apr-06 01:33N 46°57' E 031°59'0 0.0
2014-Apr-06 00:33N 46°57' E 031°59'0 0.0
2014-Apr-05 23:33N 46°57' E 031°59'0 0.0
2014-Apr-05 22:33N 46°57' E 031°59'0 0.0
2014-Apr-05 21:33N 46°57' E 031°59'0 0.0
2014-Apr-05 20:30N 46°57' E 031°59'0 0.0
2014-Apr-05 19:33N 46°57' E 031°59'0 0.0
2014-Apr-05 18:33N 46°57' E 031°59'0 0.0
2014-Apr-05 17:33N 46°57' E 031°59'0 0.0
2014-Apr-05 16:33N 46°57' E 031°59'0 0.3
2014-Apr-05 15:31N 46°57' E 031°59'0 0.0
2014-Apr-05 14:33N 46°57' E 031°59'0 0.3
2014-Apr-05 13:33N 46°57' E 031°59'3 2.9
2014-Apr-05 12:33N 46°54' E 032°01'4 4.2
2014-Apr-05 11:33N 46°51' E 031°57'4 4.0
2014-Apr-05 10:33N 46°47' E 031°53'4 4.0
2014-Apr-05 09:33N 46°44' E 031°56'4 4.0
2014-Apr-05 08:33N 46°40' E 031°56'4 3.9
2014-Apr-05 07:33N 46°37' E 031°59'4 4.0
2014-Apr-05 06:33N 46°33' E 032°03'4 4.1
2014-Apr-05 05:31N 46°32' E 032°08'6 4.5
2014-Apr-05 04:10N 46°33' E 032°17'6 1.7
2014-Apr-05 00:29N 46°33' E 032°26'  

Dump ship's entire track history

sailing weather and tide predictions

Nibulon 1 — UUAS4 — position and weather